sensor_id;sensor_type;location;lat;lon;timestamp;P1;durP1;ratioP1;P2;durP2;ratioP2
12681;SDS011;6405;59.208;18.216;2024-03-22T00:01:41;14.63;;;8.33;;
12681;SDS011;6405;59.208;18.216;2024-03-22T00:04:07;12.30;;;7.87;;
12681;SDS011;6405;59.208;18.216;2024-03-22T00:06:32;11.33;;;7.20;;
12681;SDS011;6405;59.208;18.216;2024-03-22T00:08:58;10.83;;;7.37;;
12681;SDS011;6405;59.208;18.216;2024-03-22T00:11:24;12.07;;;7.93;;
12681;SDS011;6405;59.208;18.216;2024-03-22T00:13:50;11.03;;;7.43;;
12681;SDS011;6405;59.208;18.216;2024-03-22T00:16:16;12.63;;;7.43;;
12681;SDS011;6405;59.208;18.216;2024-03-22T00:18:41;11.73;;;7.60;;
12681;SDS011;6405;59.208;18.216;2024-03-22T00:21:07;9.83;;;6.33;;
12681;SDS011;6405;59.208;18.216;2024-03-22T00:23:33;13.47;;;6.53;;
12681;SDS011;6405;59.208;18.216;2024-03-22T00:25:59;11.67;;;7.10;;
12681;SDS011;6405;59.208;18.216;2024-03-22T00:28:24;13.17;;;7.07;;
12681;SDS011;6405;59.208;18.216;2024-03-22T00:30:50;10.50;;;6.67;;
12681;SDS011;6405;59.208;18.216;2024-03-22T00:33:16;9.37;;;6.20;;
12681;SDS011;6405;59.208;18.216;2024-03-22T00:35:42;12.30;;;5.83;;
12681;SDS011;6405;59.208;18.216;2024-03-22T00:38:07;9.83;;;6.00;;
12681;SDS011;6405;59.208;18.216;2024-03-22T00:40:33;10.20;;;6.10;;
12681;SDS011;6405;59.208;18.216;2024-03-22T00:42:59;8.23;;;5.70;;
12681;SDS011;6405;59.208;18.216;2024-03-22T00:45:24;9.47;;;5.63;;
12681;SDS011;6405;59.208;18.216;2024-03-22T00:47:51;8.73;;;5.60;;
12681;SDS011;6405;59.208;18.216;2024-03-22T00:50:16;9.40;;;5.63;;
12681;SDS011;6405;59.208;18.216;2024-03-22T00:52:42;7.70;;;5.30;;
12681;SDS011;6405;59.208;18.216;2024-03-22T00:55:08;8.33;;;5.07;;
12681;SDS011;6405;59.208;18.216;2024-03-22T00:57:33;8.07;;;5.10;;
12681;SDS011;6405;59.208;18.216;2024-03-22T00:59:59;8.30;;;4.50;;
12681;SDS011;6405;59.208;18.216;2024-03-22T01:02:25;7.97;;;4.77;;
12681;SDS011;6405;59.208;18.216;2024-03-22T01:04:50;7.90;;;4.17;;
12681;SDS011;6405;59.208;18.216;2024-03-22T01:07:16;6.33;;;3.93;;
12681;SDS011;6405;59.208;18.216;2024-03-22T01:09:42;7.70;;;4.10;;
12681;SDS011;6405;59.208;18.216;2024-03-22T01:12:09;6.67;;;4.30;;
12681;SDS011;6405;59.208;18.216;2024-03-22T01:14:35;5.23;;;3.87;;
12681;SDS011;6405;59.208;18.216;2024-03-22T01:17:01;5.53;;;3.60;;
12681;SDS011;6405;59.208;18.216;2024-03-22T01:19:27;6.43;;;4.07;;
12681;SDS011;6405;59.208;18.216;2024-03-22T01:21:53;6.27;;;4.00;;
12681;SDS011;6405;59.208;18.216;2024-03-22T01:24:18;6.00;;;4.10;;
12681;SDS011;6405;59.208;18.216;2024-03-22T01:26:44;7.67;;;3.87;;
12681;SDS011;6405;59.208;18.216;2024-03-22T01:29:10;9.30;;;4.37;;
12681;SDS011;6405;59.208;18.216;2024-03-22T01:31:35;5.30;;;3.70;;
12681;SDS011;6405;59.208;18.216;2024-03-22T01:34:01;5.57;;;3.77;;
12681;SDS011;6405;59.208;18.216;2024-03-22T01:36:27;5.13;;;3.67;;
12681;SDS011;6405;59.208;18.216;2024-03-22T01:38:52;5.87;;;4.47;;
12681;SDS011;6405;59.208;18.216;2024-03-22T01:41:18;5.90;;;4.00;;
12681;SDS011;6405;59.208;18.216;2024-03-22T01:43:44;7.93;;;4.43;;
12681;SDS011;6405;59.208;18.216;2024-03-22T01:46:09;6.07;;;4.13;;
12681;SDS011;6405;59.208;18.216;2024-03-22T01:48:35;5.50;;;4.10;;
12681;SDS011;6405;59.208;18.216;2024-03-22T01:51:01;5.83;;;3.90;;
12681;SDS011;6405;59.208;18.216;2024-03-22T01:53:27;6.80;;;4.43;;
12681;SDS011;6405;59.208;18.216;2024-03-22T01:55:53;4.37;;;3.67;;
12681;SDS011;6405;59.208;18.216;2024-03-22T01:58:19;5.93;;;4.23;;
12681;SDS011;6405;59.208;18.216;2024-03-22T02:00:46;6.30;;;4.07;;
12681;SDS011;6405;59.208;18.216;2024-03-22T02:03:12;6.30;;;4.30;;
12681;SDS011;6405;59.208;18.216;2024-03-22T02:05:38;5.63;;;3.67;;
12681;SDS011;6405;59.208;18.216;2024-03-22T02:08:04;8.20;;;4.27;;
12681;SDS011;6405;59.208;18.216;2024-03-22T02:10:30;7.73;;;3.63;;
12681;SDS011;6405;59.208;18.216;2024-03-22T02:12:56;5.03;;;3.80;;
12681;SDS011;6405;59.208;18.216;2024-03-22T02:15:21;5.47;;;3.77;;
12681;SDS011;6405;59.208;18.216;2024-03-22T02:17:47;5.83;;;3.97;;
12681;SDS011;6405;59.208;18.216;2024-03-22T02:20:13;6.57;;;3.97;;
12681;SDS011;6405;59.208;18.216;2024-03-22T02:22:38;6.03;;;4.00;;
12681;SDS011;6405;59.208;18.216;2024-03-22T02:25:04;5.03;;;3.50;;
12681;SDS011;6405;59.208;18.216;2024-03-22T02:27:30;7.07;;;3.93;;
12681;SDS011;6405;59.208;18.216;2024-03-22T02:29:56;5.53;;;3.90;;
12681;SDS011;6405;59.208;18.216;2024-03-22T02:32:21;7.03;;;3.50;;
12681;SDS011;6405;59.208;18.216;2024-03-22T02:34:47;6.20;;;3.90;;
12681;SDS011;6405;59.208;18.216;2024-03-22T02:37:13;6.63;;;4.00;;
12681;SDS011;6405;59.208;18.216;2024-03-22T02:39:38;5.97;;;3.67;;
12681;SDS011;6405;59.208;18.216;2024-03-22T02:42:04;6.03;;;3.90;;
12681;SDS011;6405;59.208;18.216;2024-03-22T02:44:30;5.10;;;3.50;;
12681;SDS011;6405;59.208;18.216;2024-03-22T02:46:56;5.10;;;3.37;;
12681;SDS011;6405;59.208;18.216;2024-03-22T02:49:21;8.00;;;3.57;;
12681;SDS011;6405;59.208;18.216;2024-03-22T02:51:47;5.97;;;3.87;;
12681;SDS011;6405;59.208;18.216;2024-03-22T02:54:13;9.60;;;4.37;;
12681;SDS011;6405;59.208;18.216;2024-03-22T02:56:39;6.73;;;4.37;;
12681;SDS011;6405;59.208;18.216;2024-03-22T02:59:05;8.17;;;4.37;;
12681;SDS011;6405;59.208;18.216;2024-03-22T03:01:30;7.23;;;4.47;;
12681;SDS011;6405;59.208;18.216;2024-03-22T03:03:56;7.90;;;4.50;;
12681;SDS011;6405;59.208;18.216;2024-03-22T03:06:22;6.83;;;3.93;;
12681;SDS011;6405;59.208;18.216;2024-03-22T03:08:47;8.17;;;4.03;;
12681;SDS011;6405;59.208;18.216;2024-03-22T03:11:14;7.20;;;4.33;;
12681;SDS011;6405;59.208;18.216;2024-03-22T03:13:40;7.13;;;4.27;;
12681;SDS011;6405;59.208;18.216;2024-03-22T03:16:05;8.20;;;3.83;;
12681;SDS011;6405;59.208;18.216;2024-03-22T03:18:31;7.20;;;4.20;;
12681;SDS011;6405;59.208;18.216;2024-03-22T03:20:57;7.43;;;4.07;;
12681;SDS011;6405;59.208;18.216;2024-03-22T03:23:22;7.27;;;4.73;;
12681;SDS011;6405;59.208;18.216;2024-03-22T03:25:48;7.83;;;4.30;;
12681;SDS011;6405;59.208;18.216;2024-03-22T03:28:14;6.03;;;4.10;;
12681;SDS011;6405;59.208;18.216;2024-03-22T03:30:40;9.93;;;5.13;;
12681;SDS011;6405;59.208;18.216;2024-03-22T03:33:05;7.10;;;4.80;;
12681;SDS011;6405;59.208;18.216;2024-03-22T03:35:31;8.27;;;4.90;;
12681;SDS011;6405;59.208;18.216;2024-03-22T03:37:57;8.93;;;5.30;;
12681;SDS011;6405;59.208;18.216;2024-03-22T03:40:45;5.67;;;4.87;;
12681;SDS011;6405;59.208;18.216;2024-03-22T03:43:33;7.47;;;5.00;;
12681;SDS011;6405;59.208;18.216;2024-03-22T03:46:22;7.73;;;5.37;;
12681;SDS011;6405;59.208;18.216;2024-03-22T03:48:49;10.13;;;5.13;;
12681;SDS011;6405;59.208;18.216;2024-03-22T03:51:14;7.77;;;4.93;;
12681;SDS011;6405;59.208;18.216;2024-03-22T03:53:40;9.40;;;5.20;;
12681;SDS011;6405;59.208;18.216;2024-03-22T03:56:06;7.23;;;4.17;;
12681;SDS011;6405;59.208;18.216;2024-03-22T03:58:31;7.63;;;4.47;;
12681;SDS011;6405;59.208;18.216;2024-03-22T04:00:57;7.17;;;4.53;;
12681;SDS011;6405;59.208;18.216;2024-03-22T04:03:31;6.07;;;3.87;;
12681;SDS011;6405;59.208;18.216;2024-03-22T04:05:57;6.47;;;4.30;;
12681;SDS011;6405;59.208;18.216;2024-03-22T04:08:24;7.03;;;3.93;;
12681;SDS011;6405;59.208;18.216;2024-03-22T04:10:53;8.33;;;4.00;;
12681;SDS011;6405;59.208;18.216;2024-03-22T04:13:21;6.33;;;4.17;;
12681;SDS011;6405;59.208;18.216;2024-03-22T04:15:48;5.80;;;3.90;;
12681;SDS011;6405;59.208;18.216;2024-03-22T04:18:13;6.50;;;3.83;;
12681;SDS011;6405;59.208;18.216;2024-03-22T04:20:39;8.17;;;4.17;;
12681;SDS011;6405;59.208;18.216;2024-03-22T04:23:05;8.57;;;4.30;;
12681;SDS011;6405;59.208;18.216;2024-03-22T04:25:30;7.17;;;3.40;;
12681;SDS011;6405;59.208;18.216;2024-03-22T04:27:56;7.17;;;3.40;;
12681;SDS011;6405;59.208;18.216;2024-03-22T04:30:22;5.83;;;3.93;;
12681;SDS011;6405;59.208;18.216;2024-03-22T04:32:48;5.73;;;3.37;;
12681;SDS011;6405;59.208;18.216;2024-03-22T04:35:13;6.03;;;3.90;;
12681;SDS011;6405;59.208;18.216;2024-03-22T04:37:39;5.90;;;3.70;;
12681;SDS011;6405;59.208;18.216;2024-03-22T04:40:05;6.07;;;3.30;;
12681;SDS011;6405;59.208;18.216;2024-03-22T04:42:31;4.77;;;3.27;;
12681;SDS011;6405;59.208;18.216;2024-03-22T04:44:57;4.87;;;2.90;;
12681;SDS011;6405;59.208;18.216;2024-03-22T04:47:23;6.50;;;3.40;;
12681;SDS011;6405;59.208;18.216;2024-03-22T04:49:49;4.73;;;3.27;;
12681;SDS011;6405;59.208;18.216;2024-03-22T04:52:14;5.17;;;3.33;;
12681;SDS011;6405;59.208;18.216;2024-03-22T04:54:40;4.40;;;3.00;;
12681;SDS011;6405;59.208;18.216;2024-03-22T04:57:06;5.70;;;2.87;;
12681;SDS011;6405;59.208;18.216;2024-03-22T04:59:31;6.73;;;3.30;;
12681;SDS011;6405;59.208;18.216;2024-03-22T05:01:57;5.63;;;3.60;;
12681;SDS011;6405;59.208;18.216;2024-03-22T05:04:23;5.93;;;3.57;;
12681;SDS011;6405;59.208;18.216;2024-03-22T05:06:49;4.13;;;2.70;;
12681;SDS011;6405;59.208;18.216;2024-03-22T05:09:14;8.77;;;3.60;;
12681;SDS011;6405;59.208;18.216;2024-03-22T05:11:40;4.67;;;3.77;;
12681;SDS011;6405;59.208;18.216;2024-03-22T05:14:06;5.23;;;3.67;;
12681;SDS011;6405;59.208;18.216;2024-03-22T05:16:32;4.27;;;2.80;;
12681;SDS011;6405;59.208;18.216;2024-03-22T05:18:57;6.03;;;3.23;;
12681;SDS011;6405;59.208;18.216;2024-03-22T05:21:23;5.03;;;2.67;;
12681;SDS011;6405;59.208;18.216;2024-03-22T05:23:49;3.80;;;3.07;;
12681;SDS011;6405;59.208;18.216;2024-03-22T05:26:15;4.83;;;2.60;;
12681;SDS011;6405;59.208;18.216;2024-03-22T05:28:40;5.17;;;3.10;;
12681;SDS011;6405;59.208;18.216;2024-03-22T05:31:06;6.00;;;3.13;;
12681;SDS011;6405;59.208;18.216;2024-03-22T05:33:32;6.10;;;2.70;;
12681;SDS011;6405;59.208;18.216;2024-03-22T05:35:57;4.43;;;2.80;;
12681;SDS011;6405;59.208;18.216;2024-03-22T05:38:24;6.77;;;3.33;;
12681;SDS011;6405;59.208;18.216;2024-03-22T05:40:49;4.50;;;3.13;;
12681;SDS011;6405;59.208;18.216;2024-03-22T05:43:15;7.97;;;3.23;;
12681;SDS011;6405;59.208;18.216;2024-03-22T05:45:41;7.10;;;3.57;;
12681;SDS011;6405;59.208;18.216;2024-03-22T05:48:07;4.97;;;3.50;;
12681;SDS011;6405;59.208;18.216;2024-03-22T05:50:32;6.30;;;3.53;;
12681;SDS011;6405;59.208;18.216;2024-03-22T05:52:58;5.50;;;3.60;;
12681;SDS011;6405;59.208;18.216;2024-03-22T05:55:24;7.00;;;4.10;;
12681;SDS011;6405;59.208;18.216;2024-03-22T05:57:52;4.63;;;3.50;;
12681;SDS011;6405;59.208;18.216;2024-03-22T06:00:18;4.80;;;3.53;;
12681;SDS011;6405;59.208;18.216;2024-03-22T06:02:43;7.50;;;3.80;;
12681;SDS011;6405;59.208;18.216;2024-03-22T06:05:09;7.07;;;3.57;;
12681;SDS011;6405;59.208;18.216;2024-03-22T06:07:35;7.47;;;4.00;;
12681;SDS011;6405;59.208;18.216;2024-03-22T06:10:07;7.90;;;4.17;;
12681;SDS011;6405;59.208;18.216;2024-03-22T06:12:34;9.40;;;4.10;;
12681;SDS011;6405;59.208;18.216;2024-03-22T06:15:00;11.83;;;4.60;;
12681;SDS011;6405;59.208;18.216;2024-03-22T06:17:26;7.87;;;4.27;;
12681;SDS011;6405;59.208;18.216;2024-03-22T06:19:52;9.03;;;4.70;;
12681;SDS011;6405;59.208;18.216;2024-03-22T06:22:18;9.43;;;4.77;;
12681;SDS011;6405;59.208;18.216;2024-03-22T06:24:44;7.00;;;3.57;;
12681;SDS011;6405;59.208;18.216;2024-03-22T06:27:10;7.80;;;4.13;;
12681;SDS011;6405;59.208;18.216;2024-03-22T06:29:35;7.50;;;4.63;;
12681;SDS011;6405;59.208;18.216;2024-03-22T06:32:01;8.30;;;4.70;;
12681;SDS011;6405;59.208;18.216;2024-03-22T06:34:27;6.17;;;4.27;;
12681;SDS011;6405;59.208;18.216;2024-03-22T06:36:53;6.50;;;4.23;;
12681;SDS011;6405;59.208;18.216;2024-03-22T06:39:18;6.07;;;4.30;;
12681;SDS011;6405;59.208;18.216;2024-03-22T06:41:44;6.63;;;4.13;;
12681;SDS011;6405;59.208;18.216;2024-03-22T06:44:10;7.80;;;4.20;;
12681;SDS011;6405;59.208;18.216;2024-03-22T06:46:37;6.50;;;3.80;;
12681;SDS011;6405;59.208;18.216;2024-03-22T06:49:03;7.10;;;4.37;;
12681;SDS011;6405;59.208;18.216;2024-03-22T06:51:28;7.80;;;4.13;;
12681;SDS011;6405;59.208;18.216;2024-03-22T06:53:54;7.70;;;4.57;;
12681;SDS011;6405;59.208;18.216;2024-03-22T06:56:20;9.17;;;4.33;;
12681;SDS011;6405;59.208;18.216;2024-03-22T06:58:48;10.40;;;4.70;;
12681;SDS011;6405;59.208;18.216;2024-03-22T07:01:14;10.87;;;5.03;;
12681;SDS011;6405;59.208;18.216;2024-03-22T07:03:41;8.80;;;4.13;;
12681;SDS011;6405;59.208;18.216;2024-03-22T07:06:10;7.03;;;4.30;;
12681;SDS011;6405;59.208;18.216;2024-03-22T07:08:36;9.60;;;4.33;;
12681;SDS011;6405;59.208;18.216;2024-03-22T07:11:05;6.57;;;4.30;;
12681;SDS011;6405;59.208;18.216;2024-03-22T07:13:34;6.57;;;4.10;;
12681;SDS011;6405;59.208;18.216;2024-03-22T07:15:59;7.90;;;4.63;;
12681;SDS011;6405;59.208;18.216;2024-03-22T07:18:25;5.83;;;4.27;;
12681;SDS011;6405;59.208;18.216;2024-03-22T07:20:51;7.33;;;4.87;;
12681;SDS011;6405;59.208;18.216;2024-03-22T07:23:17;6.43;;;3.90;;
12681;SDS011;6405;59.208;18.216;2024-03-22T07:25:43;6.83;;;4.30;;
12681;SDS011;6405;59.208;18.216;2024-03-22T07:28:10;9.80;;;4.33;;
12681;SDS011;6405;59.208;18.216;2024-03-22T07:30:36;6.17;;;4.20;;
12681;SDS011;6405;59.208;18.216;2024-03-22T07:33:03;7.60;;;4.27;;
12681;SDS011;6405;59.208;18.216;2024-03-22T07:35:29;7.30;;;4.50;;
12681;SDS011;6405;59.208;18.216;2024-03-22T07:37:54;8.33;;;4.93;;
12681;SDS011;6405;59.208;18.216;2024-03-22T07:40:21;7.13;;;4.10;;
12681;SDS011;6405;59.208;18.216;2024-03-22T07:42:47;7.30;;;4.20;;
12681;SDS011;6405;59.208;18.216;2024-03-22T07:45:12;7.90;;;4.23;;
12681;SDS011;6405;59.208;18.216;2024-03-22T07:47:38;6.67;;;4.53;;
12681;SDS011;6405;59.208;18.216;2024-03-22T07:50:07;6.23;;;4.13;;
12681;SDS011;6405;59.208;18.216;2024-03-22T07:52:33;5.43;;;3.80;;
12681;SDS011;6405;59.208;18.216;2024-03-22T07:54:59;7.07;;;4.53;;
12681;SDS011;6405;59.208;18.216;2024-03-22T07:57:27;6.90;;;4.10;;
12681;SDS011;6405;59.208;18.216;2024-03-22T07:59:53;6.17;;;3.97;;
12681;SDS011;6405;59.208;18.216;2024-03-22T08:02:19;6.47;;;3.77;;
12681;SDS011;6405;59.208;18.216;2024-03-22T08:04:44;4.87;;;3.50;;
12681;SDS011;6405;59.208;18.216;2024-03-22T08:07:10;5.87;;;3.93;;
12681;SDS011;6405;59.208;18.216;2024-03-22T08:09:36;4.70;;;3.90;;
12681;SDS011;6405;59.208;18.216;2024-03-22T08:12:01;5.13;;;4.30;;
12681;SDS011;6405;59.208;18.216;2024-03-22T08:14:27;5.03;;;3.90;;
12681;SDS011;6405;59.208;18.216;2024-03-22T08:16:53;5.30;;;3.30;;
12681;SDS011;6405;59.208;18.216;2024-03-22T08:19:19;4.73;;;3.20;;
12681;SDS011;6405;59.208;18.216;2024-03-22T08:21:45;5.50;;;3.67;;
12681;SDS011;6405;59.208;18.216;2024-03-22T08:24:10;3.40;;;3.10;;
12681;SDS011;6405;59.208;18.216;2024-03-22T08:26:36;4.27;;;3.30;;
12681;SDS011;6405;59.208;18.216;2024-03-22T08:29:02;5.20;;;3.33;;
12681;SDS011;6405;59.208;18.216;2024-03-22T08:31:28;4.20;;;3.37;;
12681;SDS011;6405;59.208;18.216;2024-03-22T08:33:53;5.63;;;3.40;;
12681;SDS011;6405;59.208;18.216;2024-03-22T08:36:21;5.40;;;3.47;;
12681;SDS011;6405;59.208;18.216;2024-03-22T08:38:48;4.40;;;3.40;;
12681;SDS011;6405;59.208;18.216;2024-03-22T08:41:14;4.57;;;2.80;;
12681;SDS011;6405;59.208;18.216;2024-03-22T08:43:40;6.37;;;3.80;;
12681;SDS011;6405;59.208;18.216;2024-03-22T08:46:06;5.17;;;3.20;;
12681;SDS011;6405;59.208;18.216;2024-03-22T08:48:32;5.37;;;3.23;;
12681;SDS011;6405;59.208;18.216;2024-03-22T08:50:58;5.17;;;3.30;;
12681;SDS011;6405;59.208;18.216;2024-03-22T08:53:24;5.87;;;3.40;;
12681;SDS011;6405;59.208;18.216;2024-03-22T08:55:50;6.37;;;3.50;;
12681;SDS011;6405;59.208;18.216;2024-03-22T08:58:15;5.10;;;2.90;;
12681;SDS011;6405;59.208;18.216;2024-03-22T09:00:43;5.60;;;2.90;;
12681;SDS011;6405;59.208;18.216;2024-03-22T09:03:09;4.97;;;3.20;;
12681;SDS011;6405;59.208;18.216;2024-03-22T09:05:35;4.07;;;3.00;;
12681;SDS011;6405;59.208;18.216;2024-03-22T09:08:01;4.17;;;3.13;;
12681;SDS011;6405;59.208;18.216;2024-03-22T09:10:28;3.80;;;2.70;;
12681;SDS011;6405;59.208;18.216;2024-03-22T09:12:55;3.43;;;2.67;;
12681;SDS011;6405;59.208;18.216;2024-03-22T09:15:21;3.77;;;2.97;;
12681;SDS011;6405;59.208;18.216;2024-03-22T09:17:47;4.73;;;2.93;;
12681;SDS011;6405;59.208;18.216;2024-03-22T09:20:13;3.90;;;2.97;;
12681;SDS011;6405;59.208;18.216;2024-03-22T09:22:38;4.27;;;2.70;;
12681;SDS011;6405;59.208;18.216;2024-03-22T09:25:05;4.33;;;2.70;;
12681;SDS011;6405;59.208;18.216;2024-03-22T09:27:31;3.50;;;2.60;;
12681;SDS011;6405;59.208;18.216;2024-03-22T09:29:57;4.27;;;2.67;;
12681;SDS011;6405;59.208;18.216;2024-03-22T09:32:23;3.00;;;2.43;;
12681;SDS011;6405;59.208;18.216;2024-03-22T09:34:49;3.60;;;2.80;;
12681;SDS011;6405;59.208;18.216;2024-03-22T09:37:17;4.40;;;3.03;;
12681;SDS011;6405;59.208;18.216;2024-03-22T09:39:43;4.37;;;2.97;;
12681;SDS011;6405;59.208;18.216;2024-03-22T09:42:09;3.63;;;2.67;;
12681;SDS011;6405;59.208;18.216;2024-03-22T09:44:47;3.90;;;2.60;;
12681;SDS011;6405;59.208;18.216;2024-03-22T09:47:19;5.23;;;2.87;;
12681;SDS011;6405;59.208;18.216;2024-03-22T09:49:46;4.90;;;3.07;;
12681;SDS011;6405;59.208;18.216;2024-03-22T09:52:14;4.83;;;3.13;;
12681;SDS011;6405;59.208;18.216;2024-03-22T09:54:43;7.13;;;3.67;;
12681;SDS011;6405;59.208;18.216;2024-03-22T09:57:11;5.00;;;3.70;;
12681;SDS011;6405;59.208;18.216;2024-03-22T09:59:43;6.63;;;4.10;;
12681;SDS011;6405;59.208;18.216;2024-03-22T10:02:10;6.97;;;3.67;;
12681;SDS011;6405;59.208;18.216;2024-03-22T10:04:37;5.53;;;3.63;;
12681;SDS011;6405;59.208;18.216;2024-03-22T10:07:06;7.70;;;4.17;;
12681;SDS011;6405;59.208;18.216;2024-03-22T10:09:36;7.37;;;4.73;;
12681;SDS011;6405;59.208;18.216;2024-03-22T10:12:02;8.43;;;4.80;;
12681;SDS011;6405;59.208;18.216;2024-03-22T10:14:29;8.03;;;4.93;;
12681;SDS011;6405;59.208;18.216;2024-03-22T10:16:56;6.70;;;4.50;;
12681;SDS011;6405;59.208;18.216;2024-03-22T10:19:22;8.63;;;5.33;;
12681;SDS011;6405;59.208;18.216;2024-03-22T10:22:00;9.73;;;5.80;;
12681;SDS011;6405;59.208;18.216;2024-03-22T10:24:27;11.03;;;7.13;;
12681;SDS011;6405;59.208;18.216;2024-03-22T10:26:53;11.00;;;6.87;;
12681;SDS011;6405;59.208;18.216;2024-03-22T10:29:20;11.07;;;6.63;;
12681;SDS011;6405;59.208;18.216;2024-03-22T10:31:47;12.60;;;7.27;;
12681;SDS011;6405;59.208;18.216;2024-03-22T10:34:16;12.23;;;7.17;;
12681;SDS011;6405;59.208;18.216;2024-03-22T10:36:43;13.47;;;6.50;;
12681;SDS011;6405;59.208;18.216;2024-03-22T10:39:13;14.10;;;7.67;;
12681;SDS011;6405;59.208;18.216;2024-03-22T10:41:42;12.33;;;7.13;;
12681;SDS011;6405;59.208;18.216;2024-03-22T10:44:10;14.00;;;7.53;;
12681;SDS011;6405;59.208;18.216;2024-03-22T10:46:36;16.23;;;7.53;;
12681;SDS011;6405;59.208;18.216;2024-03-22T10:49:02;11.23;;;7.10;;
12681;SDS011;6405;59.208;18.216;2024-03-22T10:51:29;13.57;;;7.27;;
12681;SDS011;6405;59.208;18.216;2024-03-22T10:53:56;13.40;;;7.23;;
12681;SDS011;6405;59.208;18.216;2024-03-22T10:56:24;12.50;;;7.07;;
12681;SDS011;6405;59.208;18.216;2024-03-22T10:58:51;12.40;;;7.10;;
12681;SDS011;6405;59.208;18.216;2024-03-22T11:01:26;11.47;;;7.13;;
12681;SDS011;6405;59.208;18.216;2024-03-22T11:04:05;12.60;;;6.33;;
12681;SDS011;6405;59.208;18.216;2024-03-22T11:06:36;9.53;;;6.43;;
12681;SDS011;6405;59.208;18.216;2024-03-22T11:09:02;14.77;;;7.40;;
12681;SDS011;6405;59.208;18.216;2024-03-22T11:11:32;11.90;;;7.27;;
12681;SDS011;6405;59.208;18.216;2024-03-22T11:14:05;14.33;;;7.00;;
12681;SDS011;6405;59.208;18.216;2024-03-22T11:16:31;11.73;;;6.80;;
12681;SDS011;6405;59.208;18.216;2024-03-22T11:18:56;12.10;;;6.50;;
12681;SDS011;6405;59.208;18.216;2024-03-22T11:21:22;13.10;;;7.30;;
12681;SDS011;6405;59.208;18.216;2024-03-22T11:23:48;12.73;;;7.20;;
12681;SDS011;6405;59.208;18.216;2024-03-22T11:26:15;10.73;;;6.97;;
12681;SDS011;6405;59.208;18.216;2024-03-22T11:28:41;12.73;;;6.50;;
12681;SDS011;6405;59.208;18.216;2024-03-22T11:31:08;14.80;;;7.20;;
12681;SDS011;6405;59.208;18.216;2024-03-22T11:33:33;12.00;;;7.17;;
12681;SDS011;6405;59.208;18.216;2024-03-22T11:36:00;15.70;;;6.77;;
12681;SDS011;6405;59.208;18.216;2024-03-22T11:38:27;10.73;;;6.17;;
12681;SDS011;6405;59.208;18.216;2024-03-22T11:40:54;11.37;;;6.47;;
12681;SDS011;6405;59.208;18.216;2024-03-22T11:43:22;11.93;;;6.97;;
12681;SDS011;6405;59.208;18.216;2024-03-22T11:45:48;12.70;;;6.93;;
12681;SDS011;6405;59.208;18.216;2024-03-22T11:48:14;13.33;;;7.07;;
12681;SDS011;6405;59.208;18.216;2024-03-22T11:50:40;12.97;;;7.13;;
12681;SDS011;6405;59.208;18.216;2024-03-22T11:53:06;13.70;;;6.87;;
12681;SDS011;6405;59.208;18.216;2024-03-22T11:55:32;15.33;;;7.47;;
12681;SDS011;6405;59.208;18.216;2024-03-22T11:58:00;12.77;;;7.13;;
12681;SDS011;6405;59.208;18.216;2024-03-22T12:00:26;11.97;;;7.30;;
12681;SDS011;6405;59.208;18.216;2024-03-22T12:02:53;15.07;;;7.60;;
12681;SDS011;6405;59.208;18.216;2024-03-22T12:05:22;14.43;;;7.30;;
12681;SDS011;6405;59.208;18.216;2024-03-22T12:07:51;12.17;;;6.63;;
12681;SDS011;6405;59.208;18.216;2024-03-22T12:10:17;13.30;;;6.93;;
12681;SDS011;6405;59.208;18.216;2024-03-22T12:12:43;12.30;;;6.93;;
12681;SDS011;6405;59.208;18.216;2024-03-22T12:15:08;10.03;;;6.23;;
12681;SDS011;6405;59.208;18.216;2024-03-22T12:17:34;12.40;;;6.97;;
12681;SDS011;6405;59.208;18.216;2024-03-22T12:20:02;13.37;;;6.93;;
12681;SDS011;6405;59.208;18.216;2024-03-22T12:22:29;10.17;;;5.93;;
12681;SDS011;6405;59.208;18.216;2024-03-22T12:24:55;14.70;;;7.00;;
12681;SDS011;6405;59.208;18.216;2024-03-22T12:27:21;12.90;;;6.87;;
12681;SDS011;6405;59.208;18.216;2024-03-22T12:29:47;12.70;;;6.97;;
12681;SDS011;6405;59.208;18.216;2024-03-22T12:32:12;16.73;;;8.43;;
12681;SDS011;6405;59.208;18.216;2024-03-22T12:34:38;10.17;;;6.47;;
12681;SDS011;6405;59.208;18.216;2024-03-22T12:37:04;15.13;;;8.03;;
12681;SDS011;6405;59.208;18.216;2024-03-22T12:39:29;13.40;;;6.93;;
12681;SDS011;6405;59.208;18.216;2024-03-22T12:41:57;11.50;;;6.30;;
12681;SDS011;6405;59.208;18.216;2024-03-22T12:44:23;11.40;;;6.23;;
12681;SDS011;6405;59.208;18.216;2024-03-22T12:46:49;12.60;;;6.37;;
12681;SDS011;6405;59.208;18.216;2024-03-22T12:49:16;11.27;;;6.80;;
12681;SDS011;6405;59.208;18.216;2024-03-22T12:51:42;10.93;;;6.43;;
12681;SDS011;6405;59.208;18.216;2024-03-22T12:54:08;11.80;;;6.60;;
12681;SDS011;6405;59.208;18.216;2024-03-22T12:56:34;11.83;;;6.57;;
12681;SDS011;6405;59.208;18.216;2024-03-22T12:59:01;9.17;;;6.17;;
12681;SDS011;6405;59.208;18.216;2024-03-22T13:01:27;12.17;;;6.67;;
12681;SDS011;6405;59.208;18.216;2024-03-22T13:03:54;10.03;;;5.97;;
12681;SDS011;6405;59.208;18.216;2024-03-22T13:06:20;8.37;;;5.63;;
12681;SDS011;6405;59.208;18.216;2024-03-22T13:08:46;10.73;;;6.37;;
12681;SDS011;6405;59.208;18.216;2024-03-22T13:11:12;10.50;;;6.17;;
12681;SDS011;6405;59.208;18.216;2024-03-22T13:13:39;10.10;;;6.10;;
12681;SDS011;6405;59.208;18.216;2024-03-22T13:16:05;12.40;;;6.13;;
12681;SDS011;6405;59.208;18.216;2024-03-22T13:18:32;9.53;;;5.73;;
12681;SDS011;6405;59.208;18.216;2024-03-22T13:20:58;8.10;;;5.53;;
12681;SDS011;6405;59.208;18.216;2024-03-22T13:23:23;10.63;;;6.07;;
12681;SDS011;6405;59.208;18.216;2024-03-22T13:25:49;10.07;;;5.73;;
12681;SDS011;6405;59.208;18.216;2024-03-22T13:28:16;10.67;;;5.50;;
12681;SDS011;6405;59.208;18.216;2024-03-22T13:30:47;10.87;;;6.23;;
12681;SDS011;6405;59.208;18.216;2024-03-22T13:33:14;7.37;;;5.10;;
12681;SDS011;6405;59.208;18.216;2024-03-22T13:35:40;8.27;;;5.03;;
12681;SDS011;6405;59.208;18.216;2024-03-22T13:38:08;7.77;;;4.37;;
12681;SDS011;6405;59.208;18.216;2024-03-22T13:40:38;6.90;;;4.63;;
12681;SDS011;6405;59.208;18.216;2024-03-22T13:43:05;7.13;;;4.80;;
12681;SDS011;6405;59.208;18.216;2024-03-22T13:45:31;9.33;;;5.03;;
12681;SDS011;6405;59.208;18.216;2024-03-22T13:47:57;6.90;;;4.13;;
12681;SDS011;6405;59.208;18.216;2024-03-22T13:50:23;5.43;;;4.07;;
12681;SDS011;6405;59.208;18.216;2024-03-22T13:52:49;6.63;;;3.67;;
12681;SDS011;6405;59.208;18.216;2024-03-22T13:55:15;5.00;;;3.50;;
12681;SDS011;6405;59.208;18.216;2024-03-22T13:57:40;6.70;;;3.77;;
12681;SDS011;6405;59.208;18.216;2024-03-22T14:00:07;4.37;;;3.40;;
12681;SDS011;6405;59.208;18.216;2024-03-22T14:02:33;5.50;;;3.43;;
12681;SDS011;6405;59.208;18.216;2024-03-22T14:04:59;6.47;;;3.10;;
12681;SDS011;6405;59.208;18.216;2024-03-22T14:07:24;3.97;;;2.90;;
12681;SDS011;6405;59.208;18.216;2024-03-22T14:09:50;4.60;;;3.10;;
12681;SDS011;6405;59.208;18.216;2024-03-22T14:12:16;6.20;;;3.07;;
12681;SDS011;6405;59.208;18.216;2024-03-22T14:14:42;6.37;;;2.70;;
12681;SDS011;6405;59.208;18.216;2024-03-22T14:17:07;3.17;;;1.80;;
12681;SDS011;6405;59.208;18.216;2024-03-22T14:19:33;6.17;;;2.70;;
12681;SDS011;6405;59.208;18.216;2024-03-22T14:22:00;4.53;;;2.40;;
12681;SDS011;6405;59.208;18.216;2024-03-22T14:24:25;3.53;;;2.53;;
12681;SDS011;6405;59.208;18.216;2024-03-22T14:26:51;3.73;;;2.07;;
12681;SDS011;6405;59.208;18.216;2024-03-22T14:29:17;6.43;;;2.70;;
12681;SDS011;6405;59.208;18.216;2024-03-22T14:31:44;7.43;;;2.20;;
12681;SDS011;6405;59.208;18.216;2024-03-22T14:34:10;5.90;;;2.60;;
12681;SDS011;6405;59.208;18.216;2024-03-22T14:36:36;6.30;;;2.37;;
12681;SDS011;6405;59.208;18.216;2024-03-22T14:39:02;3.60;;;2.63;;
12681;SDS011;6405;59.208;18.216;2024-03-22T14:41:30;4.50;;;2.57;;